Time;durP1;ratioP1;P1;durP2;ratioP2;P2;SDS_P1;SDS_P2;PMS_P1;PMS_P2;Temp;Humidity;BMP_temperature;BMP_pressure;BME280_temperature;BME280_humidity;BME280_pressure;Samples;Min_cycle;Max_cycle;Signal;HPM_P1;HPM_P2
2024/04/25 00:00:01;;;;;;;7.38;1.65;;;;;;;4.26;100.00;68857.13;5471085;26;20449;-48
2024/04/25 00:02:31;;;;;;;6.70;1.88;;;;;;;4.27;100.00;68863.44;5481008;26;20060;-47
2024/04/25 00:05:02;;;;;;;3.65;1.30;;;;;;;4.39;100.00;68876.78;5481445;26;20012;-52
2024/04/25 00:07:33;;;;;;;3.20;1.30;;;;;;;4.35;100.00;68872.13;5458239;26;19999;-46
2024/04/25 00:10:03;;;;;;;5.63;1.90;;;;;;;4.42;100.00;68877.09;5475398;26;20003;-43
2024/04/25 00:12:36;;;;;;;5.13;2.08;;;;;;;4.40;100.00;68875.38;5448668;26;20013;-45
2024/04/25 00:15:07;;;;;;;6.20;2.00;;;;;;;4.39;100.00;68877.38;5453961;26;20039;-47
2024/04/25 00:17:37;;;;;;;3.50;1.60;;;;;;;4.34;100.00;68871.56;5452325;26;20406;-46
2024/04/25 00:20:09;;;;;;;2.85;1.45;;;;;;;4.32;100.00;68866.66;5447264;26;20034;-46
2024/04/25 00:22:39;;;;;;;5.45;1.90;;;;;;;4.31;100.00;68862.91;5474849;26;20437;-47
2024/04/25 00:25:10;;;;;;;4.15;1.70;;;;;;;4.28;100.00;68861.44;5488222;26;20054;-47
2024/04/25 00:27:43;;;;;;;4.75;1.75;;;;;;;4.26;100.00;68861.72;5464789;26;20072;-47
2024/04/25 00:30:13;;;;;;;5.07;1.98;;;;;;;4.16;100.00;68853.84;5460983;26;20012;-46
2024/04/25 00:32:43;;;;;;;5.03;1.80;;;;;;;4.15;100.00;68850.09;5481237;26;19997;-47
2024/04/25 00:35:14;;;;;;;5.20;1.90;;;;;;;4.14;100.00;68843.75;5455034;26;20034;-48
2024/04/25 00:37:44;;;;;;;7.05;2.15;;;;;;;4.03;100.00;68839.31;5466132;26;20029;-47
2024/04/25 00:40:15;;;;;;;7.93;1.90;;;;;;;3.99;100.00;68834.09;5478713;26;19994;-46
2024/04/25 00:42:48;;;;;;;6.65;2.03;;;;;;;3.92;100.00;68821.38;5470908;26;20039;-46
2024/04/25 00:45:18;;;;;;;4.60;1.80;;;;;;;3.96;100.00;68828.03;5447612;26;20544;-44
2024/04/25 00:47:52;;;;;;;8.10;2.17;;;;;;;3.83;100.00;68811.53;5459683;26;20014;-44
2024/04/25 00:50:25;;;;;;;4.82;2.05;;;;;;;3.81;100.00;68814.34;5472013;26;19998;-45
2024/04/25 00:52:59;;;;;;;7.55;2.22;;;;;;;3.81;100.00;68809.19;5475072;26;20535;-45
2024/04/25 00:55:30;;;;;;;6.40;1.85;;;;;;;3.82;100.00;68812.94;5477500;26;20394;-45
2024/04/25 00:58:07;;;;;;;5.45;1.92;;;;;;;3.74;100.00;68801.06;5486445;26;20013;-47
2024/04/25 01:00:42;;;;;;;6.72;2.08;;;;;;;3.70;100.00;68802.16;5479929;26;20337;-45
2024/04/25 01:03:13;;;;;;;4.88;1.88;;;;;;;3.69;100.00;68793.25;5466696;26;20007;-48
2024/04/25 01:05:44;;;;;;;7.28;2.00;;;;;;;3.63;100.00;68790.91;5448495;26;20007;-45
2024/04/25 01:08:15;;;;;;;7.88;2.08;;;;;;;3.52;100.00;68779.28;5456705;26;20160;-45
2024/04/25 01:10:47;;;;;;;3.42;1.70;;;;;;;3.54;100.00;68778.44;5479199;26;20020;-45
2024/04/25 01:13:20;;;;;;;6.03;1.75;;;;;;;3.53;100.00;68782.44;5450163;26;19998;-47
2024/04/25 01:15:51;;;;;;;4.53;1.80;;;;;;;3.45;100.00;68775.72;5485342;26;20040;-43
2024/04/25 01:18:22;;;;;;;5.38;1.75;;;;;;;3.40;100.00;68760.19;5484004;26;20021;-46
2024/04/25 01:20:53;;;;;;;7.80;2.13;;;;;;;3.48;100.00;68774.06;5473743;26;20070;-46
2024/04/25 01:23:28;;;;;;;6.45;2.40;;;;;;;3.42;100.00;68767.66;5484974;26;20034;-45
2024/04/25 01:26:02;;;;;;;8.00;2.58;;;;;;;3.40;100.00;68759.63;5463455;26;20045;-46
2024/04/25 01:28:34;;;;;;;6.28;2.38;;;;;;;3.37;100.00;68761.88;5484910;26;20447;-46
2024/04/25 01:31:06;;;;;;;8.13;2.60;;;;;;;3.39;100.00;68764.19;5472185;26;20014;-44
2024/04/25 01:33:42;;;;;;;7.32;2.40;;;;;;;3.35;100.00;68762.72;5455208;26;20003;-48
2024/04/25 01:36:13;;;;;;;6.35;3.10;;;;;;;3.31;100.00;68754.91;5477178;26;20002;-48
2024/04/25 01:38:43;;;;;;;6.88;2.83;;;;;;;3.27;100.00;68750.84;5481003;26;19999;-48
2024/04/25 01:41:16;;;;;;;8.35;3.00;;;;;;;3.28;100.00;68751.44;5486735;26;19998;-48
2024/04/25 01:43:46;;;;;;;7.07;3.30;;;;;;;3.27;100.00;68742.53;5471977;26;20009;-46
2024/04/25 01:46:17;;;;;;;9.00;3.35;;;;;;;3.24;100.00;68744.22;5486848;26;20001;-46
2024/04/25 01:48:47;;;;;;;10.27;3.45;;;;;;;3.20;100.00;68740.16;5501930;26;19999;-46
2024/04/25 01:51:18;;;;;;;10.95;3.55;;;;;;;3.21;100.00;68741.31;5450484;26;20465;-49
2024/04/25 01:53:48;;;;;;;6.43;3.35;;;;;;;3.17;100.00;68737.25;5471525;26;19998;-51
2024/04/25 01:56:21;;;;;;;10.60;3.80;;;;;;;3.13;100.00;68732.03;5486366;26;19998;-46
2024/04/25 01:58:53;;;;;;;7.20;3.10;;;;;;;3.04;100.00;68724.75;5450125;26;20022;-48
2024/04/25 02:01:26;;;;;;;7.63;3.75;;;;;;;3.04;100.00;68725.34;5449911;26;20002;-47
2024/04/25 02:03:56;;;;;;;11.38;3.75;;;;;;;3.04;100.00;68724.75;5450895;26;20003;-48
2024/04/25 02:06:27;;;;;;;11.85;3.78;;;;;;;3.03;100.00;68723.59;5449959;26;20009;-47
2024/04/25 02:08:57;;;;;;;10.63;3.83;;;;;;;2.99;100.00;68721.53;5482870;26;19998;-48
2024/04/25 02:11:32;;;;;;;8.93;4.10;;;;;;;3.04;100.00;68722.75;5486011;26;20009;-48
2024/04/25 02:14:03;;;;;;;8.13;3.80;;;;;;;3.04;100.00;68725.34;5452531;26;20003;-47
2024/04/25 02:16:33;;;;;;;8.40;3.70;;;;;;;3.01;100.00;68721.84;5449910;26;20003;-47
2024/04/25 02:19:03;;;;;;;8.43;3.95;;;;;;;2.99;100.00;68718.97;5470377;26;20453;-48
2024/04/25 02:27:09;;;;;;;9.93;4.32;;;;;;;2.84;100.00;68702.72;5482246;26;19999;-46
2024/04/25 02:29:40;;;;;;;10.88;4.35;;;;;;;2.85;100.00;68703.88;5455060;26;20071;-47
2024/04/25 02:32:10;;;;;;;10.48;4.55;;;;;;;2.85;100.00;68706.44;5453034;26;20002;-48
2024/04/25 02:34:40;;;;;;;10.18;4.47;;;;;;;2.82;100.00;68700.41;5480420;26;20013;-54
2024/04/25 02:37:11;;;;;;;12.07;4.07;;;;;;;2.85;100.00;68701.31;5489174;26;20026;-47
2024/04/25 02:39:44;;;;;;;9.10;4.32;;;;;;;2.86;100.00;68709.59;5477986;26;20055;-46
2024/04/25 02:42:17;;;;;;;11.13;3.85;;;;;;;2.88;100.00;68707.34;5485472;26;20466;-50
2024/04/25 02:44:45;;;;;;;13.82;4.85;;;;;;;2.87;100.00;68703.03;5462612;26;20003;-46
2024/04/25 02:47:16;;;;;;;8.82;4.07;;;;;;;2.91;100.00;68710.25;5452995;26;20008;-46
2024/04/25 02:49:43;;;;;;;11.10;4.40;;;;;;;2.93;100.00;68709.41;5456164;26;20011;-49
2024/04/25 02:52:14;;;;;;;11.15;4.50;;;;;;;2.94;100.00;68713.72;5485383;26;20012;-50
2024/04/25 02:54:41;;;;;;;12.95;4.60;;;;;;;2.91;100.00;68712.81;5484778;26;19998;-47
2024/04/25 02:57:12;;;;;;;13.00;4.22;;;;;;;2.90;100.00;68708.50;5453788;26;20030;-46
2024/04/25 02:59:43;;;;;;;12.57;5.00;;;;;;;2.92;100.00;68708.25;5453055;26;20002;-47
2024/04/25 03:02:13;;;;;;;10.90;4.25;;;;;;;2.92;100.00;68710.81;5481790;26;20017;-48
2024/04/25 03:04:41;;;;;;;11.02;4.72;;;;;;;2.94;100.00;68715.72;5488805;26;20012;-48
2024/04/25 03:07:11;;;;;;;13.63;4.70;;;;;;;2.95;100.00;68714.31;5479391;26;20012;-49
2024/04/25 03:09:39;;;;;;;10.68;4.53;;;;;;;3.00;100.00;68714.94;5486783;26;19998;-48
2024/04/25 03:12:10;;;;;;;10.20;4.10;;;;;;;3.01;100.00;68718.69;5462609;26;20009;-48
2024/04/25 03:14:38;;;;;;;9.85;4.22;;;;;;;2.98;100.00;68718.38;5452790;26;19999;-49
2024/04/25 03:17:11;;;;;;;12.90;4.65;;;;;;;2.98;100.00;68712.63;5454416;26;20456;-49
2024/04/25 03:19:39;;;;;;;9.10;4.43;;;;;;;3.01;100.00;68721.25;5478185;26;20006;-47
2024/04/25 03:22:09;;;;;;;12.70;4.78;;;;;;;2.97;100.00;68721.78;5458174;26;20006;-47
2024/04/25 03:24:37;;;;;;;10.93;4.07;;;;;;;2.93;100.00;68712.59;5454538;26;20006;-47
2024/04/25 03:27:08;;;;;;;12.90;4.63;;;;;;;2.91;100.00;68709.69;5480378;26;20086;-48
2024/04/25 03:29:36;;;;;;;11.40;4.63;;;;;;;2.93;100.00;68715.16;5475877;26;20401;-48
2024/04/25 03:32:07;;;;;;;8.63;4.10;;;;;;;2.88;100.00;68707.34;5452070;26;20030;-48
2024/04/25 03:34:40;;;;;;;12.05;4.28;;;;;;;2.83;100.00;68698.97;5453981;26;20383;-47
2024/04/25 03:37:10;;;;;;;7.63;4.05;;;;;;;2.82;100.00;68700.41;5488053;26;20062;-46
2024/04/25 03:39:44;;;;;;;10.70;3.90;;;;;;;2.77;100.00;68694.59;5488485;26;20074;-45
2024/04/25 03:42:14;;;;;;;10.80;3.53;;;;;;;2.80;100.00;68695.50;5488704;26;20012;-45
2024/04/25 03:44:45;;;;;;;9.27;3.95;;;;;;;2.76;100.00;68690.84;5488286;26;19994;-46
2024/04/25 03:47:15;;;;;;;9.90;4.00;;;;;;;2.76;100.00;68693.44;5477995;26;20003;-50
2024/04/25 03:49:48;;;;;;;10.07;3.88;;;;;;;2.75;100.00;68692.28;5454666;26;20465;-46
2024/04/25 03:52:19;;;;;;;8.95;3.25;;;;;;;2.69;100.00;68688.47;5453882;26;20015;-46
2024/04/25 03:54:49;;;;;;;10.07;4.38;;;;;;;2.68;100.00;68682.16;5452070;26;20438;-46
2024/04/25 03:57:19;;;;;;;10.00;3.85;;;;;;;2.68;100.00;68681.59;5453938;26;20086;-46
2024/04/25 03:59:50;;;;;;;10.20;3.38;;;;;;;2.72;100.00;68691.38;5450556;26;20003;-45
2024/04/25 04:02:20;;;;;;;7.75;3.40;;;;;;;2.69;100.00;68685.31;5457069;26;19998;-45
2024/04/25 04:04:53;;;;;;;6.90;3.25;;;;;;;2.67;100.00;68688.16;5486713;26;20482;-47
2024/04/25 04:07:24;;;;;;;9.13;3.15;;;;;;;2.65;100.00;68683.25;5461731;26;19998;-45
2024/04/25 04:09:54;;;;;;;8.43;3.10;;;;;;;2.64;100.00;68679.53;5487793;26;19998;-46
2024/04/25 04:12:25;;;;;;;7.03;2.75;;;;;;;2.65;100.00;68678.09;5469003;26;19998;-44
2024/04/25 04:14:55;;;;;;;7.85;2.85;;;;;;;2.63;100.00;68684.09;5486332;26;19998;-46
2024/04/25 04:17:26;;;;;;;7.80;3.03;;;;;;;2.62;100.00;68677.78;5455555;26;20324;-43
2024/04/25 04:19:59;;;;;;;10.95;2.72;;;;;;;2.65;100.00;68680.69;5470761;26;19998;-45
2024/04/25 04:22:30;;;;;;;10.80;3.08;;;;;;;2.59;100.00;68674.31;5463816;26;20012;-47
2024/04/25 04:25:00;;;;;;;7.50;2.83;;;;;;;2.62;100.00;68675.22;5486990;26;19998;-45
2024/04/25 04:27:30;;;;;;;9.02;2.83;;;;;;;2.58;100.00;68669.97;5487927;26;20071;-48
2024/04/25 04:30:01;;;;;;;11.20;3.17;;;;;;;2.50;100.00;68666.44;5466505;26;20002;-45
2024/04/25 04:32:31;;;;;;;8.38;3.40;;;;;;;2.47;100.00;68658.41;5452127;26;20013;-45
2024/04/25 04:35:04;;;;;;;9.65;2.90;;;;;;;2.49;100.00;68663.28;5460122;26;20005;-45
2024/04/25 04:37:35;;;;;;;8.10;3.00;;;;;;;2.47;100.00;68655.25;5485270;26;20013;-44
2024/04/25 04:40:06;;;;;;;8.27;3.17;;;;;;;2.46;100.00;68659.22;5469512;26;20021;-47
2024/04/25 04:42:40;;;;;;;8.50;3.05;;;;;;;2.46;100.00;68654.66;5451605;26;20480;-47
2024/04/25 04:45:10;;;;;;;6.80;3.30;;;;;;;2.47;100.00;68660.97;5464352;26;20020;-48
2024/04/25 04:47:41;;;;;;;10.60;3.35;;;;;;;2.51;100.00;68665.03;5485855;26;19998;-44
2024/04/25 04:50:17;;;;;;;8.77;3.70;;;;;;;2.53;100.00;68667.91;5464013;26;20015;-44
2024/04/25 04:52:48;;;;;;;9.45;3.30;;;;;;;2.56;100.00;68668.25;5486910;26;20010;-48
2024/04/25 04:55:19;;;;;;;9.88;3.00;;;;;;;2.57;100.00;68669.41;5483179;26;20009;-44
2024/04/25 04:57:49;;;;;;;11.07;3.42;;;;;;;2.62;100.00;68674.63;5487409;26;20029;-44
2024/04/25 05:00:20;;;;;;;9.13;3.33;;;;;;;2.68;100.00;68684.72;5477992;26;20031;-45
2024/04/25 05:02:50;;;;;;;9.85;3.85;;;;;;;2.66;100.00;68681.84;5482412;26;20333;-47
2024/04/25 05:05:23;;;;;;;11.65;3.90;;;;;;;2.70;100.00;68689.06;5482640;26;20005;-46
2024/04/25 05:07:57;;;;;;;9.70;4.22;;;;;;;2.76;100.00;68692.88;5481115;26;20010;-46
2024/04/25 05:10:29;;;;;;;11.23;3.95;;;;;;;2.77;100.00;68692.03;5483189;26;20395;-45
2024/04/25 05:12:59;;;;;;;9.75;4.22;;;;;;;2.82;100.00;68697.81;5447115;26;20087;-45
2024/04/25 05:15:30;;;;;;;10.35;4.30;;;;;;;2.85;100.00;68703.88;5480335;26;20009;-46
2024/04/25 05:18:01;;;;;;;13.95;4.45;;;;;;;2.92;100.00;68710.81;5484777;26;20022;-46
2024/04/25 05:20:34;;;;;;;10.23;4.45;;;;;;;2.95;100.00;68714.31;5460029;26;19998;-46
2024/04/25 05:23:05;;;;;;;12.18;4.25;;;;;;;3.00;100.00;68723.28;5481919;26;20002;-45
2024/04/25 05:25:35;;;;;;;13.20;4.05;;;;;;;3.03;100.00;68723.59;5484260;26;20008;-46
2024/04/25 05:28:06;;;;;;;10.35;4.43;;;;;;;3.07;100.00;68728.25;5450917;26;20474;-46
2024/04/25 05:30:36;;;;;;;11.38;4.63;;;;;;;3.13;100.00;68732.03;5445082;26;19999;-45
2024/04/25 05:33:07;;;;;;;10.73;4.07;;;;;;;3.19;100.00;68744.72;5480594;26;20013;-45
2024/04/25 05:35:40;;;;;;;10.60;4.90;;;;;;;3.28;100.00;68751.44;5468713;26;19999;-46
2024/04/25 05:38:11;;;;;;;11.57;4.05;;;;;;;3.33;100.00;68752.09;5470705;26;20006;-45
2024/04/25 05:40:41;;;;;;;8.10;4.18;;;;;;;3.38;100.00;68763.03;5450366;26;20103;-47
2024/04/25 05:43:12;;;;;;;13.85;4.75;;;;;;;3.48;100.00;68769.47;5477274;26;20002;-43
2024/04/25 05:45:43;;;;;;;8.68;4.50;;;;;;;3.53;100.00;68777.88;5486647;26;20027;-46
2024/04/25 05:48:14;;;;;;;13.30;5.88;;;;;;;3.57;100.00;68786.50;5473671;26;19999;-46
2024/04/25 05:50:47;;;;;;;12.50;5.50;;;;;;;3.63;100.00;68794.03;5480387;26;20002;-48
2024/04/25 05:53:18;;;;;;;11.23;4.78;;;;;;;3.74;100.00;68808.81;5460233;26;20013;-46
2024/04/25 05:55:48;;;;;;;14.88;5.53;;;;;;;3.76;100.00;68802.81;5445781;26;20003;-50
2024/04/25 05:58:18;;;;;;;12.13;5.25;;;;;;;3.82;100.00;68812.38;5449640;26;19995;-49
2024/04/25 06:00:49;;;;;;;12.85;5.95;;;;;;;3.88;100.00;68819.31;5467525;26;19994;-47
2024/04/25 06:03:19;;;;;;;11.95;5.78;;;;;;;3.96;100.00;68825.44;5470770;26;20068;-44
2024/04/25 06:05:53;;;;;;;10.73;5.20;;;;;;;4.03;100.00;68836.16;5449882;26;20010;-45
2024/04/25 06:08:23;;;;;;;10.93;4.78;;;;;;;4.10;100.00;68846.84;5462168;26;19998;-45
2024/04/25 06:10:53;;;;;;;13.13;5.32;;;;;;;4.18;100.00;68848.41;5481252;26;20073;-44
2024/04/25 06:13:24;;;;;;;13.70;5.07;;;;;;;4.27;100.00;68863.44;5483557;26;20043;-46
2024/04/25 06:15:54;;;;;;;16.00;5.78;;;;;;;4.41;100.00;68879.13;5486842;26;20048;-45
2024/04/25 06:18:25;;;;;;;8.23;4.53;;;;;;;4.48;100.00;68884.09;5465399;26;20014;-46
2024/04/25 06:20:58;;;;;;;14.40;4.40;;;;;;;4.55;100.00;68897.97;5451743;26;20434;-47
2024/04/25 06:23:29;;;;;;;10.60;4.20;;;;;;;4.53;100.00;68892.47;5454704;26;20469;-44
2024/04/25 06:26:00;;;;;;;12.40;4.40;;;;;;;4.53;100.00;68893.06;5476586;26;20095;-46
2024/04/25 06:28:30;;;;;;;9.13;3.50;;;;;;;4.54;100.00;68894.22;5479320;26;20005;-45
2024/04/25 06:31:01;;;;;;;7.47;3.55;;;;;;;4.60;100.00;68900.03;5477755;26;20002;-46
2024/04/25 06:33:32;;;;;;;9.60;3.78;;;;;;;4.66;100.00;68901.81;5469651;26;20002;-43
2024/04/25 06:36:07;;;;;;;9.10;3.90;;;;;;;4.74;100.00;68913.69;5458848;26;20449;-47
2024/04/25 06:38:38;;;;;;;11.98;4.13;;;;;;;4.81;100.00;68926.41;5452277;26;20006;-47
2024/04/25 06:41:08;;;;;;;13.07;4.93;;;;;;;4.87;100.00;68928.81;5470097;26;20009;-47
2024/04/25 06:43:38;;;;;;;12.68;5.00;;;;;;;4.92;100.00;68936.59;5477727;26;20007;-46
2024/04/25 06:46:11;;;;;;;10.50;5.03;;;;;;;4.97;100.00;68936.69;5461121;26;20002;-50
2024/04/25 06:48:42;;;;;;;10.55;4.60;;;;;;;5.01;100.00;68946.50;5478936;26;20070;-48
2024/04/25 06:51:18;;;;;;;12.80;5.18;;;;;;;5.09;100.00;68950.63;5460830;26;20003;-46
2024/04/25 06:53:48;;;;;;;14.73;5.55;;;;;;;5.10;100.00;68956.97;5476111;26;19998;-48
2024/04/25 06:56:19;;;;;;;9.02;4.65;;;;;;;5.18;100.00;68966.25;5457048;26;20010;-47
2024/04/25 06:58:49;;;;;;;11.10;4.80;;;;;;;5.25;100.00;68974.38;5465142;26;20433;-47
2024/04/25 07:01:19;;;;;;;10.05;4.70;;;;;;;5.39;100.00;68989.50;5485573;26;20001;-47
2024/04/25 07:03:51;;;;;;;10.23;4.30;;;;;;;5.50;100.00;68999.13;5460565;26;20056;-46
2024/04/25 07:06:24;;;;;;;14.80;4.30;;;;;;;5.65;100.00;69015.97;5449318;26;19998;-48
2024/04/25 07:08:59;;;;;;;9.88;4.10;;;;;;;5.80;100.00;69033.41;5449089;26;20003;-47
2024/04/25 07:11:30;;;;;;;8.82;3.42;;;;;;;5.86;100.00;69045.56;5461733;26;20070;-48
2024/04/25 07:14:00;;;;;;;12.40;4.07;;;;;;;5.93;100.00;69048.53;5489095;26;20010;-49
2024/04/25 07:16:32;;;;;;;9.43;3.80;;;;;;;6.08;100.00;69065.41;5486903;26;20009;-46
2024/04/25 07:19:02;;;;;;;10.45;3.58;;;;;;;6.19;100.00;69077.63;5472125;26;20453;-49
2024/04/25 07:21:35;;;;;;;9.25;3.60;;;;;;;6.32;100.00;69092.16;5479739;26;19998;-47
2024/04/25 07:24:06;;;;;;;10.35;3.30;;;;;;;6.32;100.00;69091.56;5471427;26;20418;-46
2024/04/25 07:26:36;;;;;;;9.55;2.95;;;;;;;6.32;100.00;69091.56;5472111;26;20013;-48
2024/04/25 07:29:07;;;;;;;12.32;3.40;;;;;;;6.44;100.00;69102.94;5470525;26;20452;-48
2024/04/25 07:31:37;;;;;;;10.75;3.05;;;;;;;6.64;100.00;69130.22;5488866;26;20130;-47
2024/04/25 07:34:08;;;;;;;8.98;3.50;;;;;;;6.82;100.00;69153.75;5485435;26;21722;-47
2024/04/25 07:36:41;;;;;;;10.10;3.03;;;;;;;6.84;100.00;69153.47;5481369;26;19998;-47
2024/04/25 07:39:12;;;;;;;7.82;3.08;;;;;;;6.91;100.00;69156.47;5463006;26;20018;-47
2024/04/25 07:41:45;;;;;;;9.00;3.22;;;;;;;7.04;100.00;69170.41;5459039;26;20576;-50
2024/04/25 07:44:16;;;;;;;7.28;3.22;;;;;;;7.15;100.00;69188.41;5465911;26;20002;-52
2024/04/25 07:46:47;;;;;;;9.90;3.25;;;;;;;7.36;100.00;69209.09;5453790;26;20003;-48
2024/04/25 07:49:17;;;;;;;7.45;2.90;;;;;;;7.51;100.00;69226.56;5456569;26;20003;-47
2024/04/25 07:51:50;;;;;;;10.98;3.78;;;;;;;7.55;100.00;69233.22;5463240;26;20053;-47
2024/04/25 07:54:21;;;;;;;8.80;3.35;;;;;;;7.68;100.00;69245.19;5476053;26;20077;-48
2024/04/25 07:56:51;;;;;;;8.27;3.50;;;;;;;7.65;100.00;69237.09;5466475;26;20340;-47
2024/04/25 07:59:25;;;;;;;9.82;3.45;;;;;;;7.69;100.00;69246.94;5456821;26;20317;-47
2024/04/25 08:01:55;;;;;;;10.13;3.42;;;;;;;7.74;100.00;69252.16;5450135;26;19995;-47
2024/04/25 08:04:27;;;;;;;11.07;4.18;;;;;;;7.83;100.00;69265.25;5451764;26;20010;-49
2024/04/25 08:07:00;;;;;;;10.45;3.60;;;;;;;7.92;100.00;69273.16;5456957;26;20037;-52
2024/04/25 08:09:34;;;;;;;8.75;3.15;;;;;;;7.99;100.00;69278.13;5458108;26;20337;-50
2024/04/25 08:12:05;;;;;;;11.32;3.33;;;;;;;7.98;100.00;69281.56;5454634;26;20014;-48
2024/04/25 08:14:38;;;;;;;10.73;3.38;;;;;;;7.93;100.00;69276.91;5466387;26;19999;-47
2024/04/25 08:17:08;;;;;;;9.80;3.42;;;;;;;8.08;100.00;69291.19;5473735;26;20323;-47
2024/04/25 08:19:39;;;;;;;11.07;3.17;;;;;;;8.17;100.00;69298.50;5452635;26;20003;-46
2024/04/25 08:22:12;;;;;;;9.57;3.50;;;;;;;8.43;100.00;69332.81;5465791;26;19998;-48
2024/04/25 08:24:44;;;;;;;11.43;3.65;;;;;;;8.79;100.00;69373.63;5464976;26;20457;-48
2024/04/25 08:27:14;;;;;;;10.73;3.83;;;;;;;9.02;100.00;69396.66;5487922;26;20005;-48
2024/04/25 08:29:44;;;;;;;8.80;3.10;;;;;;;9.23;100.00;69421.16;5485531;26;19990;-46
2024/04/25 08:32:17;;;;;;;11.27;3.40;;;;;;;9.49;100.00;69447.72;5487861;26;20010;-47
2024/04/25 08:34:54;;;;;;;7.57;3.40;;;;;;;9.64;100.00;69465.19;5486398;26;20002;-48
2024/04/25 08:37:28;;;;;;;6.10;2.65;;;;;;;9.68;100.00;69468.69;5451411;26;19990;-48
2024/04/25 08:39:59;;;;;;;6.10;2.30;;;;;;;9.73;100.00;69477.13;5451890;26;20526;-50
2024/04/25 08:42:29;;;;;;;9.43;2.50;;;;;;;9.87;100.00;69493.47;5486871;26;20437;-48
2024/04/25 08:45:00;;;;;;;6.50;2.08;;;;;;;10.11;100.00;69522.91;5484492;26;20030;-46
2024/04/25 08:47:29;;;;;;;10.35;2.42;;;;;;;10.26;100.00;69537.22;5457634;26;19999;-46
2024/04/25 08:50:02;;;;;;;6.80;2.35;;;;;;;10.47;100.00;69564.34;5453584;26;20346;-48
2024/04/25 08:52:36;;;;;;;7.20;2.00;;;;;;;10.54;100.00;69571.34;5451286;26;20345;-47
2024/04/25 08:55:10;;;;;;;8.00;2.00;;;;;;;10.65;100.00;69587.38;5453569;26;20349;-48
2024/04/25 08:57:41;;;;;;;7.28;2.08;;;;;;;10.60;100.00;69571.09;5486186;26;20038;-49
2024/04/25 09:00:12;;;;;;;8.23;2.33;;;;;;;10.53;100.00;69568.16;5485442;26;20010;-46
2024/04/25 09:02:46;;;;;;;7.07;1.90;;;;;;;10.46;100.00;69557.38;5487690;26;20050;-46
2024/04/25 09:05:22;;;;;;;7.57;2.58;;;;;;;10.62;100.00;69578.66;5459426;26;20002;-46
2024/04/25 09:07:57;;;;;;;7.78;2.30;;;;;;;10.58;100.00;69570.78;5483856;26;20112;-47
2024/04/25 09:10:27;;;;;;;8.98;2.15;;;;;;;10.75;100.00;69592.66;5459742;26;20023;-47
2024/04/25 09:12:58;;;;;;;5.95;1.58;;;;;;;10.71;100.00;69588.00;5451115;26;19999;-49
2024/04/25 09:15:28;;;;;;;8.98;2.00;;;;;;;10.59;100.00;69574.56;5452792;26;20460;-47
2024/04/25 09:18:00;;;;;;;7.72;1.95;;;;;;;10.60;100.00;69576.31;5453227;26;19999;-48
2024/04/25 09:20:34;;;;;;;6.03;2.03;;;;;;;10.62;100.00;69581.28;5477559;26;20083;-47
2024/04/25 09:23:07;;;;;;;8.45;1.88;;;;;;;10.52;100.00;69571.63;5449658;26;20453;-48
2024/04/25 09:25:39;;;;;;;9.70;2.22;;;;;;;10.70;100.00;69586.84;5446941;26;19998;-48
2024/04/25 09:28:10;;;;;;;8.15;2.70;;;;;;;10.91;100.00;69613.97;5449483;26;20035;-49
2024/04/25 09:30:41;;;;;;;9.68;2.50;;;;;;;11.12;100.00;69632.66;5477024;26;20002;-48
2024/04/25 09:33:12;;;;;;;5.40;2.00;;;;;;;11.46;100.00;69670.63;5450756;26;20027;-47
2024/04/25 09:35:44;;;;;;;7.05;2.90;;;;;;;11.56;100.00;69676.50;5451370;26;20768;-49
2024/04/25 09:38:18;;;;;;;9.23;2.75;;;;;;;11.64;100.00;69691.66;5450372;26;20014;-48
2024/04/25 09:40:50;;;;;;;9.35;3.03;;;;;;;11.70;100.00;69700.09;5480137;26;19998;-47
2024/04/25 09:43:23;;;;;;;7.05;2.42;;;;;;;11.64;100.00;69696.88;5485337;26;20078;-48
2024/04/25 09:45:56;;;;;;;7.20;2.58;;;;;;;11.41;100.00;69668.00;5461534;26;19999;-47
2024/04/25 09:48:34;;;;;;;7.57;2.70;;;;;;;11.53;100.00;69678.78;5450342;26;20003;-51
2024/04/25 09:51:13;;;;;;;8.82;2.63;;;;;;;11.43;100.00;69669.75;5476480;26;20039;-50
2024/04/25 09:53:54;;;;;;;7.18;2.35;;;;;;;11.37;100.00;69662.72;5450071;26;20051;-51
2024/04/25 09:56:41;;;;;;;5.32;2.08;;;;;;;11.16;100.00;69637.34;5479477;26;20014;-47
2024/04/25 09:59:14;;;;;;;;;;;;;;;11.14;100.00;69637.03;5463709;26;20027;-49
2024/04/25 10:01:46;;;;;;;7.25;2.08;;;;;;;11.23;100.00;69644.91;5452208;26;19993;-52
2024/04/25 10:04:17;;;;;;;7.28;1.73;;;;;;;11.21;100.00;69642.59;5449909;26;20027;-48
2024/04/25 10:06:50;;;;;;;7.13;1.95;;;;;;;11.13;100.00;69639.06;5451957;26;20038;-47
2024/04/25 10:09:24;;;;;;;7.70;2.08;;;;;;;11.29;100.00;69653.97;5452036;26;20006;-46
2024/04/25 10:11:54;;;;;;;8.02;2.20;;;;;;;11.35;100.00;69663.00;5462122;26;19998;-47
2024/04/25 10:14:29;;;;;;;5.80;2.10;;;;;;;11.41;100.00;69664.78;5485995;26;20062;-46
2024/04/25 10:17:00;;;;;;;9.32;2.70;;;;;;;11.43;100.00;69667.13;5482965;26;20410;-46
2024/04/25 10:19:38;;;;;;;8.52;2.58;;;;;;;11.29;100.00;69654.56;5486285;26;19994;-48
2024/04/25 10:22:09;;;;;;;9.73;3.10;;;;;;;11.25;100.00;69649.88;5483244;26;20051;-46
2024/04/25 10:24:48;;;;;;;9.05;2.50;;;;;;;11.39;100.00;69667.69;5511581;26;20599;-49
2024/04/25 10:27:19;;;;;;;8.27;2.60;;;;;;;11.31;100.00;69656.88;5475113;26;20547;-48
2024/04/25 10:29:52;;;;;;;6.10;1.97;;;;;;;11.20;100.00;69646.66;5449715;26;20018;-47
2024/04/25 10:32:26;;;;;;;4.55;2.08;;;;;;;11.31;100.00;69656.88;5458371;26;20356;-50
2024/04/25 10:34:58;;;;;;;5.90;2.30;;;;;;;11.60;100.00;69686.97;5482835;26;20006;-50
2024/04/25 10:37:30;;;;;;;5.60;2.22;;;;;;;11.40;100.00;69663.59;5475440;26;20002;-49
2024/04/25 10:40:03;;;;;;;6.28;1.88;;;;;;;11.67;100.00;69697.19;5467843;26;20027;-48
2024/04/25 10:42:34;;;;;;;5.03;1.70;;;;;;;12.00;99.33;69726.75;5449113;26;19994;-46
2024/04/25 10:45:08;;;;;;;7.30;1.80;;;;;;;12.22;100.00;69751.88;5482257;26;20002;-48
2024/04/25 10:47:38;;;;;;;7.07;2.28;;;;;;;12.31;100.00;69770.25;5488904;26;20042;-49
2024/04/25 10:50:11;;;;;;;5.70;1.98;;;;;;;12.20;100.00;69759.41;5486685;26;20470;-49
2024/04/25 10:52:44;;;;;;;6.13;1.90;;;;;;;12.17;100.00;69756.47;5489390;26;20038;-48
2024/04/25 10:55:18;;;;;;;4.88;1.98;;;;;;;12.03;99.55;69730.25;5486441;26;20010;-47
2024/04/25 10:57:48;;;;;;;7.00;2.15;;;;;;;11.87;100.00;69719.97;5452670;26;19999;-48
2024/04/25 11:00:18;;;;;;;5.00;1.70;;;;;;;11.75;100.00;69709.16;5452661;26;20014;-48
2024/04/25 11:02:55;;;;;;;6.60;1.95;;;;;;;11.52;100.00;69679.66;5452801;26;20031;-50
2024/04/25 11:05:26;;;;;;;3.72;1.67;;;;;;;11.44;100.00;69670.91;5452582;26;20027;-48
2024/04/25 11:07:57;;;;;;;8.10;1.73;;;;;;;11.38;100.00;69664.47;5452553;26;20002;-49
2024/04/25 11:10:34;;;;;;;4.65;1.83;;;;;;;11.53;100.00;69680.81;5452569;26;20067;-47
2024/04/25 11:13:07;;;;;;;7.88;1.83;;;;;;;11.41;100.00;69670.00;5452643;26;20067;-46
2024/04/25 11:15:42;;;;;;;6.05;2.38;;;;;;;11.37;100.00;69660.09;5452542;26;20003;-48
2024/04/25 11:18:14;;;;;;;7.40;2.22;;;;;;;11.23;100.00;69646.97;5452500;26;19998;-47
2024/04/25 11:20:54;;;;;;;8.48;2.30;;;;;;;10.99;100.00;69620.69;5452455;26;20010;-47
2024/04/25 11:23:25;;;;;;;5.47;1.70;;;;;;;10.79;100.00;69594.72;5452390;26;20330;-50
2024/04/25 11:26:01;;;;;;;6.32;2.13;;;;;;;10.61;100.00;69582.72;5452268;26;19995;-50
2024/04/25 11:28:31;;;;;;;8.63;2.35;;;;;;;9.84;100.00;69487.34;5452614;26;20003;-49
2024/04/25 11:31:03;;;;;;;6.28;2.30;;;;;;;9.68;100.00;69474.50;5452183;26;20013;-49
2024/04/25 11:33:38;;;;;;;7.45;2.63;;;;;;;9.32;100.00;69430.47;5480800;26;19998;-48
2024/04/25 11:36:24;;;;;;;8.60;2.80;;;;;;;9.61;100.00;69466.91;5485448;26;20041;-47
2024/04/25 11:38:58;;;;;;;8.40;2.90;;;;;;;9.33;100.00;69431.66;5454395;26;20002;-48
2024/04/25 11:41:31;;;;;;;7.18;2.50;;;;;;;9.41;100.00;69438.38;5452491;26;19998;-48
2024/04/25 11:44:02;;;;;;;9.13;2.60;;;;;;;9.02;100.00;69399.84;5452146;26;20072;-49
2024/04/25 11:46:32;;;;;;;8.07;2.53;;;;;;;9.24;100.00;69422.34;5459897;26;20074;-52
2024/04/25 11:49:05;;;;;;;8.63;2.50;;;;;;;9.25;100.00;69426.09;5486215;26;20026;-50
2024/04/25 11:51:39;;;;;;;9.90;3.00;;;;;;;9.16;100.00;69415.00;5487578;26;19998;-48
2024/04/25 11:54:14;;;;;;;6.90;3.13;;;;;;;9.27;100.00;69425.22;5455605;26;19995;-49